Kathleen Dupre — WDI3806 — position and weather

sailwx.info

Track history (hours):
 
Tides and Currents Weather Stations Pressure Air Temp Water Temp Dewpoint Dewpoint Depression Visibility Wind Speed Wind Dir Waves Ship Positions

Kathleen Dupre

Owner: Dupre Marine Transportation, LCC, Houma, LA. More information available from US FCC via Universal Licensing System and Coast Guard Vessel Documentation Center.

Last reported at 2018-Feb-24 15:31 UTC. Time now 2018-Feb-24 15:44 UTC.
Position N 29°34' W 094°55'.

Length 14 m; draft 3 m.

Type: . MMSI: 367692120.

Date/timePositionNaut miles runAvg speedWind from/ knotsBaromVisibWave heightAir tempDewpointWater temp
2018-Feb-24 15:31N 29°34' W 094°55'4 7.7
2018-Feb-24 15:00N 29°38' W 094°58'4 7.9
2018-Feb-24 14:30N 29°41' W 094°59'3 6.5
2018-Feb-24 14:00N 29°44' W 095°02'4 0.7
2018-Feb-24 08:02N 29°46' W 095°06'0 0.0
2018-Feb-24 06:49N 29°46' W 095°06'0 0.1
2018-Feb-24 06:20N 29°46' W 095°06'1 2.7
2018-Feb-24 05:58N 29°45' W 095°06'2 4.8
2018-Feb-24 05:30N 29°44' W 095°08'1 2.3
2018-Feb-24 04:58N 29°44' W 095°10'1 1.2
2018-Feb-24 04:22N 29°44' W 095°09'2 5.2
2018-Feb-24 04:00N 29°44' W 095°07'2 3.7
2018-Feb-24 03:28N 29°46' W 095°05'0 0.0
2018-Feb-23 19:34N 29°46' W 095°05'0 6.1
2018-Feb-23 19:30N 29°46' W 095°05'1 0.8
2018-Feb-23 17:58N 29°47' W 095°04'0 0.2
2018-Feb-23 16:42N 29°47' W 095°04'2 0.5
2018-Feb-23 12:34N 29°46' W 095°06'0 2.0
2018-Feb-23 12:28N 29°46' W 095°05'1 1.1
2018-Feb-23 11:19N 29°47' W 095°04'1 4.5
2018-Feb-23 10:59N 29°46' W 095°05'8 5.8
2018-Feb-23 09:39N 29°43' W 095°14'0 0.8
2018-Feb-23 09:25N 29°44' W 095°14'2 5.4
2018-Feb-23 09:00N 29°45' W 095°11'3 5.6
2018-Feb-23 08:26N 29°44' W 095°08'2 5.9
2018-Feb-23 08:00N 29°46' W 095°05'2 1.6
2018-Feb-23 06:57N 29°47' W 095°04'2 0.5
2018-Feb-23 03:30N 29°46' W 095°05'0 0.2
2018-Feb-23 01:08N 29°46' W 095°05'1 6.1
2018-Feb-23 00:54N 29°45' W 095°06'3 6.4
2018-Feb-23 00:28N 29°44' W 095°09'2 0.1
2018-Feb-22 01:08N 29°45' W 095°11'1 4.7
2018-Feb-22 00:59N 29°45' W 095°11'2 4.5
2018-Feb-22 00:27N 29°44' W 095°08'2 4.8
2018-Feb-21 23:56N 29°45' W 095°06'2 3.5
2018-Feb-21 23:22N 29°44' W 095°04'1 3.8
2018-Feb-21 22:58N 29°44' W 095°02'2 3.8
2018-Feb-21 22:29N 29°42' W 095°01'2 4.8
2018-Feb-21 22:00N 29°41' W 094°59'20 1.4
2018-Feb-21 07:20N 29°26' W 094°43'0 0.0
2018-Feb-21 06:41N 29°26' W 094°43'0 0.3
2018-Feb-21 06:25N 29°26' W 094°43'7 2.9
2018-Feb-21 04:07N 29°22' W 094°49'1 5.5
2018-Feb-21 03:59N 29°22' W 094°50'3 0.3
2018-Feb-20 17:02N 29°22' W 094°53'0 0.0
2018-Feb-20 16:59N 29°22' W 094°53'0 0.0
2018-Feb-20 12:48N 29°22' W 094°53'0 0.9
2018-Feb-20 12:24N 29°23' W 094°53'0 0.0
2018-Feb-20 11:42N 29°23' W 094°53'0 0.1
2018-Feb-20 07:53N 29°22' W 094°53'0 0.0
2018-Feb-20 07:17N 29°22' W 094°53'0 0.0
2018-Feb-19 19:41N 29°22' W 094°53'0 1.4
2018-Feb-19 19:29N 29°22' W 094°53'7 3.1
2018-Feb-19 17:22N 29°23' W 094°46'2 2.8
2018-Feb-19 16:49N 29°24' W 094°45'1 1.7
2018-Feb-19 16:01N 29°25' W 094°43'0 4.9
2018-Feb-19 16:00N 29°25' W 094°43'0 0.5
2018-Feb-19 15:08N 29°26' W 094°43'0 0.0
2018-Feb-19 14:38N 29°26' W 094°43'0 0.0
2018-Feb-19 14:11N 29°26' W 094°43'0 0.2
2018-Feb-19 14:00N 29°26' W 094°43'0 0.2
2018-Feb-19 13:12N 29°26' W 094°43'0 0.6
2018-Feb-19 12:57N 29°26' W 094°43'0 0.0
2018-Feb-19 11:39N 29°26' W 094°43'0 0.0
2018-Feb-19 11:15N 29°26' W 094°43'0 0.0
2018-Feb-19 10:48N 29°26' W 094°43'0 0.0
2018-Feb-19 10:30N 29°26' W 094°43'0 0.0
2018-Feb-19 09:57N 29°26' W 094°43'0 0.0
2018-Feb-19 09:30N 29°26' W 094°43'0 0.0
2018-Feb-19 08:57N 29°26' W 094°43'0 0.0
2018-Feb-19 08:24N 29°26' W 094°43'0 0.0
2018-Feb-19 07:57N 29°26' W 094°43'0 0.0
2018-Feb-19 07:30N 29°26' W 094°43'0 0.0
2018-Feb-19 06:54N 29°26' W 094°43'0 0.0
2018-Feb-19 06:30N 29°26' W 094°43'0 0.0
2018-Feb-19 05:54N 29°26' W 094°43'0 0.0
2018-Feb-19 05:27N 29°26' W 094°43'0 0.0
2018-Feb-19 05:00N 29°26' W 094°43'0 0.0
2018-Feb-19 04:30N 29°26' W 094°43'0 0.0
2018-Feb-18 18:15N 29°26' W 094°43'0 0.0
2018-Feb-18 15:02N 29°26' W 094°43'0 0.0
2018-Feb-18 14:33N 29°26' W 094°43'0 0.0
2018-Feb-18 14:24N 29°26' W 094°43'0 0.0
2018-Feb-17 23:47N 29°26' W 094°43'0 0.0
2018-Feb-17 22:47N 29°26' W 094°43'0 0.0
2018-Feb-17 22:23N 29°26' W 094°43'0 0.0
2018-Feb-17 08:11N 29°26' W 094°43'0 0.0
2018-Feb-17 05:44N 29°26' W 094°43'0 0.0
2018-Feb-17 04:05N 29°26' W 094°43'0 0.0
2018-Feb-17 03:44N 29°26' W 094°43'0 0.0
2018-Feb-17 03:23N 29°26' W 094°43'0 0.0
2018-Feb-17 02:59N 29°26' W 094°43'0 0.0
2018-Feb-17 02:26N 29°26' W 094°43'0 0.4
2018-Feb-17 02:00N 29°26' W 094°43'0 0.3
2018-Feb-17 01:27N 29°25' W 094°43'0 0.3
2018-Feb-17 00:29N 29°26' W 094°43'0 0.0
2018-Feb-16 23:56N 29°26' W 094°43'0 0.0
2018-Feb-16 08:29N 29°26' W 094°43'0 0.0
2018-Feb-16 07:59N 29°26' W 094°43'0 0.0
2018-Feb-16 07:29N 29°26' W 094°43'0 0.0
2018-Feb-16 06:47N 29°26' W 094°43'0 0.0
2018-Feb-16 06:29N 29°26' W 094°43'0 0.0
2018-Feb-16 05:56N 29°26' W 094°43'0 0.0
2018-Feb-16 05:29N 29°26' W 094°43'0 0.0
2018-Feb-16 04:26N 29°26' W 094°43'0 0.0
2018-Feb-16 03:50N 29°26' W 094°43'0 0.0
2018-Feb-16 03:17N 29°26' W 094°43'0 0.0
2018-Feb-16 02:50N 29°26' W 094°43'0 0.0
2018-Feb-16 01:59N 29°26' W 094°43'0 0.0
2018-Feb-16 01:11N 29°26' W 094°43'0 0.0
2018-Feb-16 00:47N 29°26' W 094°43'0 0.0
2018-Feb-16 00:23N 29°26' W 094°43'2 0.1
2018-Feb-14 22:54N 29°24' W 094°45'2 4.8
2018-Feb-14 22:28N 29°25' W 094°43'0 0.1
2018-Feb-14 19:07N 29°26' W 094°43'0 0.0
2018-Feb-14 18:58N 29°26' W 094°43'0 0.0
2018-Feb-14 18:28N 29°26' W 094°43'0 0.0
2018-Feb-14 17:43N 29°26' W 094°43'0 0.0
2018-Feb-14 17:22N 29°26' W 094°43'  
Track history (hours):
 
Tides and Currents Weather Stations Pressure Air Temp Water Temp Dewpoint Dewpoint Depression Visibility Wind Speed Wind Dir Waves Ship Positions

Kathleen Dupre

Owner: Dupre Marine Transportation, LCC, Houma, LA. More information available from US FCC via Universal Licensing System and Coast Guard Vessel Documentation Center.

Last reported at 2018-Feb-24 15:31 UTC. Time now 2018-Feb-24 15:44 UTC.
Position N 29°34' W 094°55'.

Length 14 m; draft 3 m.

Type: . MMSI: 367692120.

Date/timePositionNaut miles runAvg speedWind from/ knotsBaromVisibWave heightAir tempDewpointWater temp
2018-Feb-24 15:31N 29°34' W 094°55'4 7.7
2018-Feb-24 15:00N 29°38' W 094°58'4 7.9
2018-Feb-24 14:30N 29°41' W 094°59'3 6.5
2018-Feb-24 14:00N 29°44' W 095°02'4 0.7
2018-Feb-24 08:02N 29°46' W 095°06'0 0.0
2018-Feb-24 06:49N 29°46' W 095°06'0 0.1
2018-Feb-24 06:20N 29°46' W 095°06'1 2.7
2018-Feb-24 05:58N 29°45' W 095°06'2 4.8
2018-Feb-24 05:30N 29°44' W 095°08'1 2.3
2018-Feb-24 04:58N 29°44' W 095°10'1 1.2
2018-Feb-24 04:22N 29°44' W 095°09'2 5.2
2018-Feb-24 04:00N 29°44' W 095°07'2 3.7
2018-Feb-24 03:28N 29°46' W 095°05'0 0.0
2018-Feb-23 19:34N 29°46' W 095°05'0 6.1
2018-Feb-23 19:30N 29°46' W 095°05'1 0.8
2018-Feb-23 17:58N 29°47' W 095°04'0 0.2
2018-Feb-23 16:42N 29°47' W 095°04'2 0.5
2018-Feb-23 12:34N 29°46' W 095°06'0 2.0
2018-Feb-23 12:28N 29°46' W 095°05'1 1.1
2018-Feb-23 11:19N 29°47' W 095°04'1 4.5
2018-Feb-23 10:59N 29°46' W 095°05'8 5.8
2018-Feb-23 09:39N 29°43' W 095°14'0 0.8
2018-Feb-23 09:25N 29°44' W 095°14'2 5.4
2018-Feb-23 09:00N 29°45' W 095°11'3 5.6
2018-Feb-23 08:26N 29°44' W 095°08'2 5.9
2018-Feb-23 08:00N 29°46' W 095°05'2 1.6
2018-Feb-23 06:57N 29°47' W 095°04'2 0.5
2018-Feb-23 03:30N 29°46' W 095°05'0 0.2
2018-Feb-23 01:08N 29°46' W 095°05'1 6.1
2018-Feb-23 00:54N 29°45' W 095°06'3 6.4
2018-Feb-23 00:28N 29°44' W 095°09'2 0.1
2018-Feb-22 01:08N 29°45' W 095°11'1 4.7
2018-Feb-22 00:59N 29°45' W 095°11'2 4.5
2018-Feb-22 00:27N 29°44' W 095°08'2 4.8
2018-Feb-21 23:56N 29°45' W 095°06'2 3.5
2018-Feb-21 23:22N 29°44' W 095°04'1 3.8
2018-Feb-21 22:58N 29°44' W 095°02'2 3.8
2018-Feb-21 22:29N 29°42' W 095°01'2 4.8
2018-Feb-21 22:00N 29°41' W 094°59'20 1.4
2018-Feb-21 07:20N 29°26' W 094°43'0 0.0
2018-Feb-21 06:41N 29°26' W 094°43'0 0.3
2018-Feb-21 06:25N 29°26' W 094°43'7 2.9
2018-Feb-21 04:07N 29°22' W 094°49'1 5.5
2018-Feb-21 03:59N 29°22' W 094°50'3 0.3
2018-Feb-20 17:02N 29°22' W 094°53'0 0.0
2018-Feb-20 16:59N 29°22' W 094°53'0 0.0
2018-Feb-20 12:48N 29°22' W 094°53'0 0.9
2018-Feb-20 12:24N 29°23' W 094°53'0 0.0
2018-Feb-20 11:42N 29°23' W 094°53'0 0.1
2018-Feb-20 07:53N 29°22' W 094°53'0 0.0
2018-Feb-20 07:17N 29°22' W 094°53'0 0.0
2018-Feb-19 19:41N 29°22' W 094°53'0 1.4
2018-Feb-19 19:29N 29°22' W 094°53'7 3.1
2018-Feb-19 17:22N 29°23' W 094°46'2 2.8
2018-Feb-19 16:49N 29°24' W 094°45'1 1.7
2018-Feb-19 16:01N 29°25' W 094°43'0 4.9
2018-Feb-19 16:00N 29°25' W 094°43'0 0.5
2018-Feb-19 15:08N 29°26' W 094°43'0 0.0
2018-Feb-19 14:38N 29°26' W 094°43'0 0.0
2018-Feb-19 14:11N 29°26' W 094°43'0 0.2
2018-Feb-19 14:00N 29°26' W 094°43'0 0.2
2018-Feb-19 13:12N 29°26' W 094°43'0 0.6
2018-Feb-19 12:57N 29°26' W 094°43'0 0.0
2018-Feb-19 11:39N 29°26' W 094°43'0 0.0
2018-Feb-19 11:15N 29°26' W 094°43'0 0.0
2018-Feb-19 10:48N 29°26' W 094°43'0 0.0
2018-Feb-19 10:30N 29°26' W 094°43'0 0.0
2018-Feb-19 09:57N 29°26' W 094°43'0 0.0
2018-Feb-19 09:30N 29°26' W 094°43'0 0.0
2018-Feb-19 08:57N 29°26' W 094°43'0 0.0
2018-Feb-19 08:24N 29°26' W 094°43'0 0.0
2018-Feb-19 07:57N 29°26' W 094°43'0 0.0
2018-Feb-19 07:30N 29°26' W 094°43'0 0.0
2018-Feb-19 06:54N 29°26' W 094°43'0 0.0
2018-Feb-19 06:30N 29°26' W 094°43'0 0.0
2018-Feb-19 05:54N 29°26' W 094°43'0 0.0
2018-Feb-19 05:27N 29°26' W 094°43'0 0.0
2018-Feb-19 05:00N 29°26' W 094°43'0 0.0
2018-Feb-19 04:30N 29°26' W 094°43'0 0.0
2018-Feb-18 18:15N 29°26' W 094°43'0 0.0
2018-Feb-18 15:02N 29°26' W 094°43'0 0.0
2018-Feb-18 14:33N 29°26' W 094°43'0 0.0
2018-Feb-18 14:24N 29°26' W 094°43'0 0.0
2018-Feb-17 23:47N 29°26' W 094°43'0 0.0
2018-Feb-17 22:47N 29°26' W 094°43'0 0.0
2018-Feb-17 22:23N 29°26' W 094°43'0 0.0
2018-Feb-17 08:11N 29°26' W 094°43'0 0.0
2018-Feb-17 05:44N 29°26' W 094°43'0 0.0
2018-Feb-17 04:05N 29°26' W 094°43'0 0.0
2018-Feb-17 03:44N 29°26' W 094°43'0 0.0
2018-Feb-17 03:23N 29°26' W 094°43'0 0.0
2018-Feb-17 02:59N 29°26' W 094°43'0 0.0
2018-Feb-17 02:26N 29°26' W 094°43'0 0.4
2018-Feb-17 02:00N 29°26' W 094°43'0 0.3
2018-Feb-17 01:27N 29°25' W 094°43'0 0.3
2018-Feb-17 00:29N 29°26' W 094°43'0 0.0
2018-Feb-16 23:56N 29°26' W 094°43'0 0.0
2018-Feb-16 08:29N 29°26' W 094°43'0 0.0
2018-Feb-16 07:59N 29°26' W 094°43'0 0.0
2018-Feb-16 07:29N 29°26' W 094°43'0 0.0
2018-Feb-16 06:47N 29°26' W 094°43'0 0.0
2018-Feb-16 06:29N 29°26' W 094°43'0 0.0
2018-Feb-16 05:56N 29°26' W 094°43'0 0.0
2018-Feb-16 05:29N 29°26' W 094°43'0 0.0
2018-Feb-16 04:26N 29°26' W 094°43'0 0.0
2018-Feb-16 03:50N 29°26' W 094°43'0 0.0
2018-Feb-16 03:17N 29°26' W 094°43'0 0.0
2018-Feb-16 02:50N 29°26' W 094°43'0 0.0
2018-Feb-16 01:59N 29°26' W 094°43'0 0.0
2018-Feb-16 01:11N 29°26' W 094°43'0 0.0
2018-Feb-16 00:47N 29°26' W 094°43'0 0.0
2018-Feb-16 00:23N 29°26' W 094°43'2 0.1
2018-Feb-14 22:54N 29°24' W 094°45'2 4.8
2018-Feb-14 22:28N 29°25' W 094°43'0 0.1
2018-Feb-14 19:07N 29°26' W 094°43'0 0.0
2018-Feb-14 18:58N 29°26' W 094°43'0 0.0
2018-Feb-14 18:28N 29°26' W 094°43'0 0.0
2018-Feb-14 17:43N 29°26' W 094°43'0 0.0
2018-Feb-14 17:22N 29°26' W 094°43'  

Dump ship's entire track history